Long Grove, Illinois
Current Conditions -  °F | °C
As of 5:52 AM on Thursday 27 Nov 2014 (Local Time) from KPWK Reporting Station
Overcast Overcast  
Wind Chill: 15°   Ceiling: 5000
Heat Index: 24°   Visibility: 7mi
Dew Point: 19°   Wind: 8mph
Humidity: 81%   Direction: 300°WNW
Pressure: 30.27"   Gusts: NA
Location:  42.18°N, 88°W
Report Text: KPWK 271152Z 30007KT 7SM FEW013 OVC050 M04/M07 A3027 RMK AO2 SLP261 T10441072 11033 21056 53010
Loading
Personal Weather Stations






























Interactive Weather Map New forecast layout! Learn more

10-Day Weather Forecast

Advertisements
Track Severe Weather on mobile